createdAt,value
2023-03-24T00:01:20.509Z,99442.09
2023-03-24T00:04:09.773Z,99437.69
2023-03-24T00:06:58.669Z,99436.47
2023-03-24T00:09:48.899Z,99434.41
2023-03-24T00:12:39.126Z,99443.81
2023-03-24T00:15:28.740Z,99425.69
2023-03-24T00:18:19.131Z,99426.16
2023-03-24T00:21:10.849Z,99415.84
2023-03-24T00:24:01.275Z,99410.03
2023-03-24T00:26:51.863Z,99419.19
2023-03-24T00:29:41.405Z,99408.03
2023-03-24T00:32:33.385Z,99405.16
2023-03-24T00:35:22.438Z,99402.34
2023-03-24T00:38:11.216Z,99399.44
2023-03-24T00:41:00.165Z,99386.75
2023-03-24T00:43:51.283Z,99396.53
2023-03-24T00:46:40.027Z,99400.09
2023-03-24T00:49:43.225Z,99395.63
2023-03-24T00:52:34.205Z,99393.72
2023-03-24T00:55:23.336Z,99388.66
2023-03-24T00:58:17.914Z,99380.97
2023-03-24T01:01:09.010Z,99373.53
2023-03-24T01:03:58.202Z,99378.97
2023-03-24T01:06:47.152Z,99369.97
2023-03-24T01:09:36.379Z,99371.19
2023-03-24T01:12:25.830Z,99367.88
2023-03-24T01:15:16.755Z,99364.28
2023-03-24T01:18:12.189Z,99364.63
2023-03-24T01:21:01.276Z,99360.91
2023-03-24T01:23:50.089Z,99354.41
2023-03-24T01:26:38.849Z,99349.88
2023-03-24T01:29:27.722Z,99352.66
2023-03-24T01:32:18.060Z,99350.22
2023-03-24T01:35:08.636Z,99341.78
2023-03-24T01:37:57.470Z,99338.06
2023-03-24T01:40:47.892Z,99343.69
2023-03-24T01:43:42.036Z,99341.69
2023-03-24T01:46:33.394Z,99332.13
2023-03-24T01:49:22.586Z,99332.25
2023-03-24T01:52:20.171Z,99337.19
2023-03-24T01:55:13.708Z,99335.41
2023-03-24T01:58:04.115Z,99329.59
2023-03-24T02:00:53.010Z,99324.31
2023-03-24T02:03:42.175Z,99325.59
2023-03-24T02:06:31.443Z,99328.28
2023-03-24T02:09:21.627Z,99328.03
2023-03-24T02:12:10.385Z,99324.56
2023-03-24T02:14:59.323Z,99327.22
2023-03-24T02:18:02.296Z,99330.47
2023-03-24T02:21:27.814Z,99328.78
2023-03-24T02:24:40.706Z,99325.16
2023-03-24T02:27:51.697Z,99319.38
2023-03-24T02:31:31.052Z,99314.59
2023-03-24T02:34:47.684Z,99308.22
2023-03-24T02:38:08.692Z,99311.34
2023-03-24T02:41:03.417Z,99301.56
2023-03-24T02:44:01.636Z,99295.16
2023-03-24T02:46:58.048Z,99296.81
2023-03-24T02:49:50.460Z,99291.47
2023-03-24T02:52:44.815Z,99289.75
2023-03-24T02:55:36.138Z,99280.34
2023-03-24T02:58:33.694Z,99282.41
2023-03-24T03:01:31.504Z,99289.00
2023-03-24T03:04:23.285Z,99270.53
2023-03-24T03:07:12.916Z,99282.72
2023-03-24T03:10:05.033Z,99275.53
2023-03-24T03:12:57.681Z,99281.66
2023-03-24T03:15:51.368Z,99282.84
2023-03-24T03:18:43.664Z,99276.31
2023-03-24T03:21:36.911Z,99276.31
2023-03-24T03:24:29.728Z,99281.56
2023-03-24T03:27:20.814Z,99279.25
2023-03-24T03:30:13.353Z,99284.22
2023-03-24T03:33:10.457Z,99273.06
2023-03-24T03:36:00.960Z,99262.84
2023-03-24T03:38:55.986Z,99262.03
2023-03-24T03:41:44.991Z,99261.69
2023-03-24T03:44:33.738Z,99248.09
2023-03-24T03:47:23.290Z,99239.84
2023-03-24T03:50:13.622Z,99237.03
2023-03-24T03:53:02.413Z,99231.84
2023-03-24T03:55:52.281Z,99250.53
2023-03-24T03:58:42.454Z,99239.38
2023-03-24T04:01:34.241Z,99238.13
2023-03-24T04:04:50.601Z,99241.47
2023-03-24T04:08:09.633Z,99226.03
2023-03-24T04:11:26.631Z,99227.09
2023-03-24T04:14:39.576Z,99236.94
2023-03-24T04:17:40.238Z,99238.59
2023-03-24T04:20:34.764Z,99232.78
2023-03-24T04:23:32.703Z,99226.50
2023-03-24T04:26:30.916Z,99234.88
2023-03-24T04:29:27.262Z,99232.63
2023-03-24T04:32:21.894Z,99230.34
2023-03-24T04:35:15.037Z,99237.88
2023-03-24T04:38:07.578Z,99233.16
2023-03-24T04:40:59.807Z,99220.84
2023-03-24T04:43:50.242Z,99213.41
2023-03-24T04:46:39.421Z,99213.84
2023-03-24T04:49:29.014Z,99205.72
2023-03-24T04:52:18.316Z,99203.63
2023-03-24T04:55:26.433Z,99197.13
2023-03-24T04:58:16.491Z,99196.53
2023-03-24T05:01:05.988Z,99193.41
2023-03-24T05:03:54.660Z,99192.94
2023-03-24T05:06:47.746Z,99184.34
2023-03-24T05:09:37.085Z,99183.75
2023-03-24T05:12:26.212Z,99180.38
2023-03-24T05:15:16.852Z,99185.28
2023-03-24T05:18:07.047Z,99172.94
2023-03-24T05:20:56.536Z,99176.09
2023-03-24T05:23:47.889Z,99168.19
2023-03-24T05:26:37.396Z,99165.31
2023-03-24T05:29:29.765Z,99173.91
2023-03-24T05:32:20.377Z,99167.41
2023-03-24T05:35:10.124Z,99162.06
2023-03-24T05:37:58.829Z,99164.94
2023-03-24T05:40:47.528Z,99153.72
2023-03-24T05:43:36.488Z,99145.09
2023-03-24T05:46:26.680Z,99139.75
2023-03-24T05:49:16.698Z,99139.75
2023-03-24T05:52:05.989Z,99140.34
2023-03-24T05:54:55.009Z,99137.47
2023-03-24T05:57:43.909Z,99128.19
2023-03-24T06:00:33.430Z,99129.06
2023-03-24T06:03:22.323Z,99121.16
2023-03-24T06:06:16.885Z,99123.72
2023-03-24T06:09:06.880Z,99123.47
2023-03-24T06:11:55.424Z,99116.03
2023-03-24T06:14:45.492Z,99115.00
2023-03-24T06:17:34.290Z,99117.22
2023-03-24T06:20:23.176Z,99118.03
2023-03-24T06:23:13.148Z,99119.22
2023-03-24T06:26:02.326Z,99109.56
2023-03-24T06:28:51.904Z,99101.09
2023-03-24T06:31:40.770Z,99102.81
2023-03-24T06:34:29.764Z,99102.25
2023-03-24T06:37:18.815Z,99096.56
2023-03-24T06:40:13.662Z,99096.56
2023-03-24T06:43:02.552Z,99102.81
2023-03-24T06:45:51.444Z,99098.75
2023-03-24T06:48:40.193Z,99095.84
2023-03-24T06:51:28.974Z,99103.41
2023-03-24T06:54:17.614Z,99101.91
2023-03-24T06:57:07.977Z,99102.03
2023-03-24T06:59:57.046Z,99103.88
2023-03-24T07:02:45.770Z,99096.13
2023-03-24T07:05:39.550Z,99105.38
2023-03-24T07:08:37.258Z,99097.38
2023-03-24T07:11:27.346Z,99094.94
2023-03-24T07:14:17.396Z,99094.56
2023-03-24T07:17:06.526Z,99102.00
2023-03-24T07:19:55.237Z,99101.19
2023-03-24T07:22:44.135Z,99090.03
2023-03-24T07:25:33.589Z,99094.81
2023-03-24T07:28:22.342Z,99092.13
2023-03-24T07:31:12.498Z,99093.31
2023-03-24T07:34:02.164Z,99092.25
2023-03-24T07:36:51.321Z,99097.59
2023-03-24T07:39:39.906Z,99097.00
2023-03-24T07:42:28.602Z,99086.22
2023-03-24T07:45:17.955Z,99089.25
2023-03-24T07:48:08.968Z,99091.56
2023-03-24T07:50:58.189Z,99093.53
2023-03-24T07:53:47.943Z,99092.28
2023-03-24T07:56:36.698Z,99083.19
2023-03-24T07:59:26.745Z,99087.72
2023-03-24T08:02:19.767Z,99086.22
2023-03-24T08:05:14.364Z,99082.84
2023-03-24T08:08:03.805Z,99084.94
2023-03-24T08:10:53.117Z,99100.97
2023-03-24T08:13:42.062Z,99103.09
2023-03-24T08:16:31.327Z,99095.63
2023-03-24T08:19:20.221Z,99092.97
2023-03-24T08:22:11.138Z,99087.06
2023-03-24T08:25:00.715Z,99081.56
2023-03-24T08:27:50.235Z,99095.50
2023-03-24T08:30:45.242Z,99081.22
2023-03-24T08:33:34.543Z,99083.44
2023-03-24T08:36:26.574Z,99086.56
2023-03-24T08:39:18.315Z,99085.44
2023-03-24T08:42:07.636Z,99088.19
2023-03-24T08:44:56.630Z,99094.69
2023-03-24T08:47:45.631Z,99094.69
2023-03-24T08:50:36.174Z,99092.50
2023-03-24T08:53:25.416Z,99069.00
2023-03-24T08:56:15.510Z,99071.69
2023-03-24T08:59:05.313Z,99072.16
2023-03-24T09:01:53.953Z,99072.72
2023-03-24T09:04:43.344Z,99086.09
2023-03-24T09:07:32.025Z,99088.19
2023-03-24T09:10:22.625Z,99079.59
2023-03-24T09:13:13.297Z,99080.19
2023-03-24T09:16:04.191Z,99080.66
2023-03-24T09:18:53.953Z,99084.47
2023-03-24T09:21:43.071Z,99082.28
2023-03-24T09:24:32.479Z,99086.00
2023-03-24T09:27:23.413Z,99090.28
2023-03-24T09:30:16.189Z,99096.91
2023-03-24T09:33:05.761Z,99096.44
2023-03-24T09:36:00.104Z,99104.94
2023-03-24T09:38:49.259Z,99094.25
2023-03-24T09:41:39.348Z,99089.34
2023-03-24T09:44:31.238Z,99099.81
2023-03-24T09:47:29.715Z,99106.81
2023-03-24T09:50:23.498Z,99098.31
2023-03-24T09:53:22.376Z,99106.81
2023-03-24T09:56:15.435Z,99103.66
2023-03-24T09:59:06.957Z,99105.75
2023-03-24T10:01:55.718Z,99117.00
2023-03-24T10:04:45.925Z,99101.34
2023-03-24T10:07:36.226Z,99094.69
2023-03-24T10:10:31.154Z,99104.09
2023-03-24T10:13:22.473Z,99101.66
2023-03-24T10:16:15.359Z,99096.00
2023-03-24T10:19:14.615Z,99103.09
2023-03-24T10:22:08.793Z,99094.00
2023-03-24T10:25:00.476Z,99096.22
2023-03-24T10:27:52.916Z,99084.94
2023-03-24T10:30:45.328Z,99086.56
2023-03-24T10:33:43.535Z,99084.47
2023-03-24T10:36:32.511Z,99088.53
2023-03-24T10:39:34.001Z,99096.78
2023-03-24T10:42:27.867Z,99087.06
2023-03-24T10:45:21.818Z,99087.84
2023-03-24T10:48:10.513Z,99088.19
2023-03-24T10:51:00.564Z,99094.81
2023-03-24T10:53:50.697Z,99110.16
2023-03-24T10:56:42.909Z,99095.63
2023-03-24T10:59:33.191Z,99093.53
2023-03-24T11:02:24.261Z,99101.78
2023-03-24T11:05:17.759Z,99100.50
2023-03-24T11:08:16.685Z,99109.09
2023-03-24T11:11:16.321Z,99120.25
2023-03-24T11:14:20.700Z,99116.06
2023-03-24T11:17:15.337Z,99126.75
2023-03-24T11:20:08.232Z,99130.47
2023-03-24T11:22:59.858Z,99117.69
2023-03-24T11:25:52.257Z,99137.00
2023-03-24T11:28:42.279Z,99139.06
2023-03-24T11:31:35.099Z,99139.06
2023-03-24T11:34:25.374Z,99131.31
2023-03-24T11:37:15.670Z,99131.66
2023-03-24T11:40:18.211Z,99131.66
2023-03-24T11:43:08.310Z,99133.72
2023-03-24T11:46:01.956Z,99120.63
2023-03-24T11:48:55.572Z,99126.75
2023-03-24T11:51:46.219Z,99129.56
2023-03-24T11:54:38.843Z,99126.31
2023-03-24T11:57:46.163Z,99112.34
2023-03-24T12:00:38.737Z,99115.63
2023-03-24T12:04:01.176Z,99113.16
2023-03-24T12:06:58.657Z,99116.91
2023-03-24T12:09:52.200Z,99104.31
2023-03-24T12:12:46.601Z,99100.59
2023-03-24T12:15:41.534Z,99083.56
2023-03-24T12:18:43.175Z,99085.16
2023-03-24T12:21:45.848Z,99073.66
2023-03-24T12:24:47.833Z,99077.16
2023-03-24T12:27:42.581Z,99083.88
2023-03-24T12:30:34.404Z,99085.75
2023-03-24T12:33:33.896Z,99089.13
2023-03-24T12:36:32.938Z,99090.88
2023-03-24T12:39:27.935Z,99089.25
2023-03-24T12:42:18.845Z,99090.88
2023-03-24T12:45:23.169Z,99086.00
2023-03-24T12:48:35.589Z,99094.59
2023-03-24T12:51:30.975Z,99090.28
2023-03-24T12:54:38.157Z,99085.03
2023-03-24T12:57:30.452Z,99070.41
2023-03-24T13:00:23.299Z,99080.75
2023-03-24T13:03:16.989Z,99066.59
2023-03-24T13:06:17.429Z,99054.50
2023-03-24T13:09:19.301Z,99063.09
2023-03-24T13:12:18.667Z,99058.56
2023-03-24T13:15:16.606Z,99060.44
2023-03-24T13:18:16.893Z,99058.72
2023-03-24T13:21:09.265Z,99062.41
2023-03-24T13:24:00.235Z,99068.78
2023-03-24T13:26:55.331Z,99066.47
2023-03-24T13:30:19.673Z,99059.28
2023-03-24T13:33:14.825Z,99062.75
2023-03-24T13:36:15.445Z,99055.00
2023-03-24T13:39:10.230Z,99049.63
2023-03-24T13:42:00.518Z,99048.03
2023-03-24T13:44:51.023Z,99053.38
2023-03-24T13:47:54.654Z,99056.94
2023-03-24T13:50:55.565Z,99059.84
2023-03-24T13:53:47.172Z,99059.16
2023-03-24T13:56:37.826Z,99066.00
2023-03-24T13:59:30.236Z,99109.78
2023-03-24T14:02:47.730Z,99179.81
2023-03-24T14:05:46.052Z,99162.38
2023-03-24T14:09:02.825Z,99189.09
2023-03-24T14:12:09.996Z,99205.13
2023-03-24T14:15:15.504Z,99194.69
2023-03-24T14:18:18.849Z,99208.63
2023-03-24T14:21:09.697Z,99215.25
2023-03-24T14:24:04.195Z,99203.16
2023-03-24T14:26:53.414Z,99218.75
2023-03-24T14:29:43.721Z,99224.09
2023-03-24T14:32:39.563Z,99222.47
2023-03-24T14:35:34.014Z,99233.94
2023-03-24T14:38:24.123Z,99215.81
2023-03-24T14:41:17.938Z,99213.84
2023-03-24T14:44:07.161Z,99228.25
2023-03-24T14:47:00.117Z,99222.56
2023-03-24T14:49:50.565Z,99228.25
2023-03-24T14:52:43.224Z,99222.91
2023-03-24T14:55:32.525Z,99233.59
2023-03-24T14:58:24.786Z,99231.16
2023-03-24T15:01:13.718Z,99235.69
2023-03-24T15:04:05.325Z,99226.19
2023-03-24T15:06:54.021Z,99225.13
2023-03-24T15:09:50.344Z,99224.53
2023-03-24T15:12:40.407Z,99225.56
2023-03-24T15:15:30.673Z,99227.19
2023-03-24T15:18:22.111Z,99222.09
2023-03-24T15:21:18.555Z,99220.69
2023-03-24T15:24:30.856Z,99220.91
2023-03-24T15:27:23.703Z,99213.16
2023-03-24T15:30:15.951Z,99216.88
2023-03-24T15:33:06.627Z,99209.22
2023-03-24T15:35:57.785Z,99192.94
2023-03-24T15:38:47.531Z,99190.84
2023-03-24T15:41:36.260Z,99205.94
2023-03-24T15:44:27.948Z,99184.34
2023-03-24T15:47:20.460Z,99152.66
2023-03-24T15:50:34.661Z,99148.38
2023-03-24T15:53:26.568Z,99162.78
2023-03-24T15:56:19.325Z,99163.94
2023-03-24T15:59:16.299Z,99172.56
2023-03-24T16:02:09.132Z,99174.03
2023-03-24T16:05:10.495Z,99160.25
2023-03-24T16:08:04.192Z,99159.50
2023-03-24T16:10:58.910Z,99156.59
2023-03-24T16:13:48.267Z,99150.25
2023-03-24T16:16:39.271Z,99161.72
2023-03-24T16:19:28.997Z,99158.44
2023-03-24T16:22:18.108Z,99159.50
2023-03-24T16:25:10.940Z,99164.25
2023-03-24T16:28:00.647Z,99168.56
2023-03-24T16:30:53.709Z,99164.84
2023-03-24T16:33:42.426Z,99162.31
2023-03-24T16:36:30.989Z,99162.31
2023-03-24T16:39:20.835Z,99164.97
2023-03-24T16:42:11.210Z,99173.47
2023-03-24T16:44:59.854Z,99172.75
2023-03-24T16:47:48.631Z,99169.72
2023-03-24T16:50:38.836Z,99167.84
2023-03-24T16:53:27.504Z,99166.47
2023-03-24T16:56:18.144Z,99155.66
2023-03-24T16:59:09.046Z,99128.81
2023-03-24T17:02:05.122Z,99146.13
2023-03-24T17:04:54.058Z,99157.50
2023-03-24T17:07:42.744Z,99162.06
2023-03-24T17:10:31.912Z,99153.44
2023-03-24T17:13:22.009Z,99164.72
2023-03-24T17:16:13.062Z,99174.38
2023-03-24T17:19:02.018Z,99180.16
2023-03-24T17:21:52.834Z,99195.25
2023-03-24T17:24:42.238Z,99188.06
2023-03-24T17:27:30.974Z,99188.84
2023-03-24T17:30:22.146Z,99193.41
2023-03-24T17:33:15.671Z,99191.63
2023-03-24T17:36:04.339Z,99189.69
2023-03-24T17:38:52.959Z,99190.38
2023-03-24T17:41:44.927Z,99189.31
2023-03-24T17:44:34.622Z,99201.25
2023-03-24T17:47:23.200Z,99198.59
2023-03-24T17:50:14.273Z,99196.88
2023-03-24T17:53:02.965Z,99198.38
2023-03-24T17:55:52.455Z,99199.91
2023-03-24T17:58:41.709Z,99217.34
2023-03-24T18:01:30.385Z,99213.03
2023-03-24T18:04:20.724Z,99212.09
2023-03-24T18:07:10.930Z,99218.97
2023-03-24T18:09:59.725Z,99221.94
2023-03-24T18:12:48.449Z,99231.47
2023-03-24T18:15:38.266Z,99231.00
2023-03-24T18:18:27.013Z,99226.63
2023-03-24T18:21:15.728Z,99224.94
2023-03-24T18:24:06.461Z,99221.16
2023-03-24T18:26:55.113Z,99222.00
2023-03-24T18:29:43.790Z,99226.63
2023-03-24T18:32:36.008Z,99234.06
2023-03-24T18:35:25.050Z,99237.56
2023-03-24T18:38:15.296Z,99233.94
2023-03-24T18:41:07.174Z,99240.81
2023-03-24T18:43:56.560Z,99251.25
2023-03-24T18:46:45.645Z,99242.94
2023-03-24T18:49:34.756Z,99249.91
2023-03-24T18:52:23.655Z,99247.00
2023-03-24T18:55:12.491Z,99248.63
2023-03-24T18:58:02.636Z,99244.69
2023-03-24T19:00:53.497Z,99249.09
2023-03-24T19:03:44.281Z,99248.63
2023-03-24T19:06:35.193Z,99253.00
2023-03-24T19:09:24.371Z,99261.91
2023-03-24T19:12:16.978Z,99267.97
2023-03-24T19:15:08.497Z,99267.25
2023-03-24T19:17:58.966Z,99271.94
2023-03-24T19:20:50.030Z,99273.66
2023-03-24T19:23:38.689Z,99276.09
2023-03-24T19:26:27.765Z,99280.50
2023-03-24T19:29:16.434Z,99277.25
2023-03-24T19:32:06.885Z,99270.88
2023-03-24T19:34:57.058Z,99266.16
2023-03-24T19:37:45.697Z,99274.09
2023-03-24T19:40:38.116Z,99280.91
2023-03-24T19:43:27.056Z,99274.81
2023-03-24T19:46:16.570Z,99276.09
2023-03-24T19:49:06.596Z,99280.97
2023-03-24T19:51:55.343Z,99276.69
2023-03-24T19:54:44.167Z,99279.00
2023-03-24T19:57:33.276Z,99274.81
2023-03-24T20:00:22.376Z,99272.72
2023-03-24T20:03:11.500Z,99278.81
2023-03-24T20:06:08.828Z,99277.84
2023-03-24T20:08:57.525Z,99271.94
2023-03-24T20:11:47.521Z,99280.19
2023-03-24T20:14:36.188Z,99271.72
2023-03-24T20:17:26.360Z,99266.22
2023-03-24T20:20:15.892Z,99276.94
2023-03-24T20:23:06.590Z,99273.94
2023-03-24T20:25:55.345Z,99277.19
2023-03-24T20:28:44.283Z,99273.19
2023-03-24T20:31:33.070Z,99276.09
2023-03-24T20:34:21.836Z,99286.56
2023-03-24T20:37:11.928Z,99284.63
2023-03-24T20:40:03.674Z,99289.97
2023-03-24T20:42:52.618Z,99294.59
2023-03-24T20:45:41.269Z,99308.06
2023-03-24T20:48:30.553Z,99306.66
2023-03-24T20:51:19.571Z,99285.97
2023-03-24T20:54:08.939Z,99286.78
2023-03-24T20:56:59.398Z,99282.97
2023-03-24T20:59:49.664Z,99274.81
2023-03-24T21:02:39.073Z,99280.53
2023-03-24T21:05:29.312Z,99278.63
2023-03-24T21:08:17.973Z,99284.38
2023-03-24T21:11:10.671Z,99286.94
2023-03-24T21:14:03.353Z,99292.13
2023-03-24T21:16:52.419Z,99292.97
2023-03-24T21:19:46.642Z,99294.94
2023-03-24T21:22:47.436Z,99291.69
2023-03-24T21:25:40.908Z,99294.00
2023-03-24T21:28:31.948Z,99298.06
2023-03-24T21:31:25.083Z,99294.59
2023-03-24T21:34:13.885Z,99288.53
2023-03-24T21:37:02.813Z,99286.78
2023-03-24T21:39:51.670Z,99280.63
2023-03-24T21:42:41.556Z,99277.00
2023-03-24T21:45:32.435Z,99271.25
2023-03-24T21:48:22.699Z,99274.34
2023-03-24T21:51:14.899Z,99279.38
2023-03-24T21:54:06.479Z,99283.88
2023-03-24T21:56:55.570Z,99283.78
2023-03-24T21:59:44.219Z,99282.25
2023-03-24T22:02:34.843Z,99284.63
2023-03-24T22:05:27.816Z,99308.19
2023-03-24T22:08:22.807Z,99304.38
2023-03-24T22:11:15.282Z,99304.03
2023-03-24T22:14:04.021Z,99315.41
2023-03-24T22:16:53.389Z,99310.63
2023-03-24T22:19:42.114Z,99291.22
2023-03-24T22:22:34.387Z,99301.25
2023-03-24T22:25:24.486Z,99305.28
2023-03-24T22:28:13.667Z,99291.53
2023-03-24T22:31:03.150Z,99290.81
2023-03-24T22:33:52.154Z,99290.81
2023-03-24T22:36:41.227Z,99293.28
2023-03-24T22:39:31.810Z,99292.13
2023-03-24T22:42:20.883Z,99293.13
2023-03-24T22:45:10.929Z,99290.81
2023-03-24T22:48:00.661Z,99282.94
2023-03-24T22:50:49.388Z,99276.41
2023-03-24T22:53:38.055Z,99283.38
2023-03-24T22:56:28.255Z,99276.28
2023-03-24T22:59:16.945Z,99283.38
2023-03-24T23:02:09.920Z,99281.38
2023-03-24T23:04:59.149Z,99274.09
2023-03-24T23:07:48.758Z,99277.81
2023-03-24T23:10:38.198Z,99279.19
2023-03-24T23:13:30.875Z,99284.63
2023-03-24T23:16:20.315Z,99283.59
2023-03-24T23:19:09.677Z,99283.19
2023-03-24T23:21:58.798Z,99289.84
2023-03-24T23:24:48.014Z,99289.00
2023-03-24T23:27:37.935Z,99287.31
2023-03-24T23:30:28.281Z,99296.50
2023-03-24T23:33:17.080Z,99283.84
2023-03-24T23:36:06.331Z,99281.97
2023-03-24T23:38:55.102Z,99279.06
2023-03-24T23:41:43.749Z,99291.03
2023-03-24T23:44:32.630Z,99290.88
2023-03-24T23:47:23.157Z,99287.31
2023-03-24T23:50:12.750Z,99285.69
2023-03-24T23:53:01.480Z,99284.47
2023-03-24T23:55:56.973Z,99289.84
2023-03-24T23:58:45.857Z,99289.50
